Time;durP1;ratioP1;P1;durP2;ratioP2;P2;SDS_P1;SDS_P2;PMS_P1;PMS_P2;Temp;Humidity;BMP_temperature;BMP_pressure;BME280_temperature;BME280_humidity;BME280_pressure;Samples;Min_cycle;Max_cycle;Signal;HPM_P1;HPM_P2
2022/04/21 00:00:19;;;;;;;6.10;3.80;;;8.90;99.90;;;;;;5084519;28;20874;-87
2022/04/21 00:02:46;;;;;;;7.43;4.23;;;8.90;99.90;;;;;;5091342;28;20421;-87
2022/04/21 00:05:14;;;;;;;10.33;4.40;;;8.90;99.90;;;;;;5083918;28;20841;-87
2022/04/21 00:07:41;;;;;;;6.20;4.33;;;9.00;99.90;;;;;;5084565;28;20440;-87
2022/04/21 00:10:09;;;;;;;4.83;4.20;;;9.00;1.00;;;;;;5082975;28;20439;-87
2022/04/21 00:12:36;;;;;;;5.57;4.87;;;9.10;1.00;;;;;;5082316;28;20419;-87
2022/04/21 00:15:04;;;;;;;4.50;3.67;;;9.00;99.90;;;;;;5082515;28;20415;-87
2022/04/21 00:17:32;;;;;;;5.87;4.27;;;8.70;1.00;;;;;;5081895;28;20853;-87
2022/04/21 00:19:59;;;;;;;6.90;4.70;;;8.80;1.00;;;;;;5089100;28;20489;-87
2022/04/21 00:25:13;;;;;;;5.40;3.90;;;9.10;1.00;;;;;;5099244;28;20452;-86
2022/04/21 00:27:40;;;;;;;6.73;4.70;;;8.90;1.00;;;;;;5095401;28;20480;-87
2022/04/21 00:30:08;;;;;;;6.90;4.57;;;8.90;1.00;;;;;;5095619;28;20444;-86
2022/04/21 00:32:37;;;;;;;7.60;4.30;;;8.80;36.20;;;;;;5098768;28;20497;-86
2022/04/21 00:35:05;;;;;;;6.57;4.20;;;8.80;1.00;;;;;;5099506;28;20437;-86
2022/04/21 00:37:31;;;;;;;6.00;4.40;;;8.90;1.00;;;;;;5099546;28;20444;-86
2022/04/21 00:39:59;;;;;;;6.87;5.00;;;8.90;1.00;;;;;;5100133;28;20508;-86
2022/04/21 00:42:25;;;;;;;8.17;4.53;;;8.80;1.00;;;;;;5099647;28;20427;-86
2022/04/21 00:44:52;;;;;;;8.80;4.20;;;8.80;1.00;;;;;;5100379;28;20512;-86
2022/04/21 00:47:19;;;;;;;5.53;4.20;;;;;;;;;;5100410;28;20421;-86
2022/04/21 00:49:48;;;;;;;8.40;4.17;;;8.80;1.00;;;;;;5100461;28;20457;-86
2022/04/21 00:52:16;;;;;;;7.57;4.10;;;8.70;1.00;;;;;;5100119;28;20420;-86
2022/04/21 00:54:44;;;;;;;7.50;4.03;;;8.70;92.50;;;;;;5100444;28;20403;-86
2022/04/21 00:57:11;;;;;;;7.27;4.17;;;;;;;;;;5099663;28;20432;-86
2022/04/21 00:59:38;;;;;;;7.60;4.60;;;;;;;;;;5099984;28;20557;-86
2022/04/21 01:04:51;;;;;;;12.40;5.10;;;8.30;1.00;;;;;;5096539;28;20436;-87
2022/04/21 01:07:18;;;;;;;9.70;4.70;;;8.50;1.00;;;;;;5086522;28;20531;-87
2022/04/21 01:09:45;;;;;;;4.60;4.20;;;8.50;99.90;;;;;;5083975;28;20461;-87
2022/04/21 01:12:14;;;;;;;6.10;4.70;;;8.50;1.00;;;;;;5087102;28;20475;-87
2022/04/21 01:14:40;;;;;;;9.07;4.60;;;8.50;1.00;;;;;;5084717;28;20448;-87
2022/04/21 01:17:08;;;;;;;7.43;4.30;;;8.70;99.90;;;;;;5083005;28;20464;-87
2022/04/21 01:19:35;;;;;;;6.70;4.00;;;8.50;99.90;;;;;;5087590;28;20477;-86
2022/04/21 01:22:04;;;;;;;11.07;4.30;;;8.40;99.90;;;;;;5081894;28;20502;-86
2022/04/21 01:24:30;;;;;;;6.70;3.90;;;8.40;1.00;;;;;;5082036;28;20452;-86
2022/04/21 01:26:58;;;;;;;8.13;4.40;;;8.40;1.00;;;;;;5080404;28;20492;-86
2022/04/21 01:29:24;;;;;;;7.53;3.87;;;8.50;99.90;;;;;;5080719;28;20479;-86
2022/04/21 01:31:54;;;;;;;4.50;3.87;;;8.50;99.90;;;;;;5082542;28;20449;-86
2022/04/21 01:34:25;;;;;;;6.93;4.90;;;8.40;1.00;;;;;;5082738;28;20450;-87
2022/04/21 01:42:22;;;;;;;8.40;4.63;;;8.40;1.00;;;;;;5081129;28;20410;-86
2022/04/21 01:44:49;;;;;;;6.00;3.80;;;8.40;1.00;;;;;;5080985;28;20419;-86
2022/04/21 01:47:15;;;;;;;8.87;4.67;;;8.60;1.00;;;;;;5081734;28;20489;-86
2022/04/21 01:49:42;;;;;;;7.30;4.00;;;8.40;1.00;;;;;;5081924;28;20465;-87
2022/04/21 01:52:08;;;;;;;7.27;4.50;;;8.30;1.00;;;;;;5084706;28;20443;-87
2022/04/21 01:54:36;;;;;;;9.40;4.33;;;8.30;1.00;;;;;;5086238;28;20445;-86
2022/04/21 01:57:03;;;;;;;7.77;5.10;;;8.30;1.00;;;;;;5083156;28;21024;-86
2022/04/21 01:59:30;;;;;;;6.23;4.63;;;8.30;1.00;;;;;;5098525;28;20500;-86
2022/04/21 02:01:57;;;;;;;9.37;4.53;;;8.30;1.00;;;;;;5099004;28;20471;-85
2022/04/21 02:04:23;;;;;;;5.70;4.40;;;8.30;1.00;;;;;;5098205;28;20445;-86
2022/04/21 02:06:50;;;;;;;4.97;4.20;;;8.30;1.00;;;;;;5099022;28;20403;-86
2022/04/21 02:09:17;;;;;;;10.30;4.83;;;8.30;1.00;;;;;;5083300;28;20967;-87
2022/04/21 02:11:45;;;;;;;6.50;4.90;;;7.90;1.00;;;;;;5081006;28;20982;-86
2022/04/21 02:14:11;;;;;;;5.90;4.83;;;8.10;1.00;;;;;;5095732;28;20437;-85
2022/04/21 02:16:38;;;;;;;7.70;5.60;;;8.10;1.00;;;;;;5098647;28;20438;-85
2022/04/21 02:19:04;;;;;;;9.37;5.40;;;8.10;1.00;;;;;;5097421;28;20489;-86
2022/04/21 02:21:31;;;;;;;12.60;5.30;;;7.50;1.00;;;;;;5098029;28;20465;-85
2022/04/21 02:23:58;;;;;;;4.83;4.37;;;8.20;1.00;;;;;;5098913;28;20408;-85
2022/04/21 02:26:25;;;;;;;6.67;4.90;;;8.20;1.00;;;;;;5098366;28;20416;-86
2022/04/21 02:28:53;;;;;;;10.60;4.47;;;8.20;1.00;;;;;;5097303;28;20467;-86
2022/04/21 02:31:19;;;;;;;5.47;4.90;;;8.20;1.00;;;;;;5097482;28;20437;-87
2022/04/21 02:33:47;;;;;;;12.23;4.97;;;8.30;1.00;;;;;;5097744;28;20460;-85
2022/04/21 02:36:13;;;;;;;8.40;5.00;;;8.20;1.00;;;;;;5097923;28;20446;-86
2022/04/21 02:38:40;;;;;;;9.47;5.00;;;8.10;1.00;;;;;;5097914;28;20477;-86
2022/04/21 02:41:08;;;;;;;11.70;4.83;;;8.10;1.00;;;;;;5098196;28;20430;-86
2022/04/21 02:43:35;;;;;;;4.63;4.23;;;8.10;1.00;;;;;;5098591;28;20405;-85
2022/04/21 02:46:04;;;;;;;6.97;4.90;;;7.70;1.00;;;;;;5098589;28;20418;-85
2022/04/21 02:48:31;;;;;;;8.03;4.70;;;8.10;1.00;;;;;;5098526;28;20429;-85
2022/04/21 02:50:57;;;;;;;7.40;4.20;;;8.10;1.00;;;;;;5098730;28;20431;-84
2022/04/21 02:58:49;;;;;;;9.27;4.63;;;8.10;1.00;;;;;;5098100;28;20468;-86
2022/04/21 03:01:17;;;;;;;9.73;5.10;;;8.20;1.00;;;;;;5098383;28;20425;-86
2022/04/21 03:03:44;;;;;;;7.40;5.37;;;;;;;;;;5098048;28;20449;-86
2022/04/21 03:06:12;;;;;;;8.97;5.80;;;7.90;6.00;;;;;;5098319;28;20411;-86
2022/04/21 03:08:39;;;;;;;8.03;6.10;;;8.00;1.00;;;;;;5098293;28;20449;-86
2022/04/21 03:11:06;;;;;;;6.50;4.97;;;;;;;;;;5097975;28;20475;-87
2022/04/21 03:13:32;;;;;;;8.30;5.10;;;8.00;1.00;;;;;;5098205;28;20433;-86
2022/04/21 03:15:59;;;;;;;7.00;5.03;;;8.00;1.00;;;;;;5097685;28;20429;-86
2022/04/21 03:18:27;;;;;;;6.13;4.60;;;8.30;1.00;;;;;;5094963;28;20464;-87
2022/04/21 03:26:22;;;;;;;9.70;5.22;;;8.10;1.00;;;;;;5084501;28;20762;-87
2022/04/21 03:28:48;;;;;;;8.83;5.90;;;8.10;1.00;;;;;;5082413;28;20230;-87
2022/04/21 03:31:15;;;;;;;11.47;5.03;;;8.10;1.00;;;;;;5082971;28;20437;-87
2022/04/21 03:33:43;;;;;;;14.63;5.90;;;8.10;1.00;;;;;;5085882;28;20447;-86
2022/04/21 03:36:10;;;;;;;9.30;5.20;;;8.10;1.00;;;;;;5085369;28;20958;-87
2022/04/21 03:38:38;;;;;;;11.00;5.60;;;8.20;1.00;;;;;;5082644;28;20468;-87
2022/04/21 03:41:05;;;;;;;6.83;4.80;;;8.10;1.00;;;;;;5081381;28;20475;-87
2022/04/21 03:43:32;;;;;;;6.57;5.20;;;8.00;1.00;;;;;;5081216;28;20452;-87
2022/04/21 03:45:58;;;;;;;12.77;6.90;;;7.90;1.00;;;;;;5081126;28;20469;-87
2022/04/21 03:48:25;;;;;;;8.37;5.30;;;8.00;1.00;;;;;;5080777;28;20469;-87
2022/04/21 03:50:53;;;;;;;7.20;5.17;;;8.00;1.00;;;;;;5082646;28;20424;-87
2022/04/21 03:53:20;;;;;;;13.47;6.80;;;7.90;13.40;;;;;;5082660;28;20498;-87
2022/04/21 03:55:46;;;;;;;13.90;5.97;;;7.70;21.50;;;;;;5083661;28;20964;-87
2022/04/21 03:58:13;;;;;;;9.63;5.87;;;7.90;9.00;;;;;;5083000;28;20492;-87
2022/04/21 04:00:39;;;;;;;11.47;6.47;;;7.90;22.20;;;;;;5083475;28;20481;-86
2022/04/21 04:03:06;;;;;;;8.63;5.97;;;7.80;93.10;;;;;;5082627;28;20448;-86
2022/04/21 04:05:33;;;;;;;12.07;5.30;;;7.90;37.40;;;;;;5082981;28;20445;-86
2022/04/21 04:10:54;;;;;;;6.20;4.70;;;7.90;19.90;;;;;;5091208;28;20439;-87
2022/04/21 04:13:21;;;;;;;10.70;5.70;;;7.90;23.90;;;;;;5089923;28;20423;-86
2022/04/21 04:15:49;;;;;;;6.20;5.43;;;7.90;25.10;;;;;;5100730;28;20429;-86
2022/04/21 04:18:17;;;;;;;8.57;6.30;;;7.90;23.20;;;;;;5098951;28;20498;-86
2022/04/21 04:20:43;;;;;;;11.10;6.30;;;8.00;21.30;;;;;;5088007;28;20515;-87
2022/04/21 04:23:11;;;;;;;11.57;6.30;;;8.10;97.40;;;;;;5090823;28;20448;-87
2022/04/21 04:25:38;;;;;;;10.40;5.70;;;7.90;86.60;;;;;;5100997;28;20404;-86
2022/04/21 04:28:05;;;;;;;10.23;6.00;;;7.50;99.90;;;;;;5099816;28;20444;-87
2022/04/21 04:30:32;;;;;;;6.83;5.40;;;7.90;94.30;;;;;;5085063;28;20424;-87
2022/04/21 04:32:59;;;;;;;7.97;6.00;;;7.90;60.00;;;;;;5080052;28;20962;-87
2022/04/21 04:35:26;;;;;;;11.67;5.70;;;7.90;96.50;;;;;;5080034;28;20461;-86
2022/04/21 04:37:53;;;;;;;7.33;5.50;;;7.80;99.90;;;;;;5080917;28;20447;-86
2022/04/21 04:40:21;;;;;;;8.20;5.50;;;7.80;99.90;;;;;;5082345;28;20461;-86
2022/04/21 04:42:47;;;;;;;7.20;5.90;;;7.90;99.90;;;;;;5079836;28;20483;-86
2022/04/21 04:47:58;;;;;;;13.45;6.80;;;7.90;99.90;;;;;;5080067;28;20430;-86
2022/04/21 04:50:24;;;;;;;7.07;5.73;;;7.80;99.90;;;;;;5080519;28;20685;-85
2022/04/21 04:52:57;;;;;;;7.90;6.50;;;7.90;99.90;;;;;;5080144;28;20459;-86
2022/04/21 04:55:25;;;;;;;8.47;6.30;;;7.90;99.90;;;;;;5079991;28;20493;-86
2022/04/21 04:57:52;;;;;;;7.03;5.80;;;8.20;99.90;;;;;;5080536;28;20793;-86
2022/04/21 05:00:20;;;;;;;8.50;5.90;;;7.90;99.90;;;;;;5080094;28;20451;-86
2022/04/21 05:02:46;;;;;;;11.53;6.97;;;8.00;99.90;;;;;;5080350;28;20449;-86
2022/04/21 05:05:13;;;;;;;9.70;5.97;;;8.00;99.10;;;;;;5080892;28;20445;-86
2022/04/21 05:07:40;;;;;;;9.77;6.20;;;7.90;99.90;;;;;;5081298;28;20940;-86
2022/04/21 05:10:08;;;;;;;9.50;6.50;;;8.00;99.90;;;;;;5080795;28;20535;-86
2022/04/21 05:12:36;;;;;;;7.70;5.90;;;7.90;99.90;;;;;;5081098;28;20454;-86
2022/04/21 05:15:03;;;;;;;11.70;6.07;;;8.00;99.90;;;;;;5081004;28;20947;-87
2022/04/21 05:17:30;;;;;;;17.60;7.40;;;8.00;99.90;;;;;;5088494;28;20427;-86
2022/04/21 05:19:57;;;;;;;10.73;5.87;;;7.90;99.90;;;;;;5098912;28;20477;-85
2022/04/21 05:22:27;;;;;;;14.17;8.53;;;8.40;99.90;;;;;;5098503;28;20429;-85
2022/04/21 05:24:56;;;;;;;11.93;7.70;;;8.10;99.90;;;;;;5093938;28;20449;-86
2022/04/21 05:27:23;;;;;;;9.30;5.80;;;8.00;99.90;;;;;;5089076;28;20453;-86
2022/04/21 05:32:40;;;;;;;11.10;5.67;;;8.10;99.90;;;;;;5087144;28;20391;-84
2022/04/21 05:35:08;;;;;;;10.13;6.33;;;8.20;98.40;;;;;;5083661;28;20473;-85
2022/04/21 05:37:35;;;;;;;7.43;5.90;;;8.50;99.30;;;;;;5085909;28;20453;-86
2022/04/21 05:40:03;;;;;;;8.47;6.90;;;8.20;84.30;;;;;;5101370;22;20488;-78
2022/04/21 05:42:35;;;;;;;9.40;6.80;;;8.20;79.80;;;;;;5089416;28;20467;-78
2022/04/21 05:45:04;;;;;;;11.70;7.73;;;8.10;99.90;;;;;;5089884;28;20433;-77
2022/04/21 05:47:32;;;;;;;11.93;7.00;;;8.10;99.90;;;;;;5089116;28;20436;-77
2022/04/21 05:50:00;;;;;;;13.47;6.77;;;8.00;99.90;;;;;;5088266;28;20456;-77
2022/04/21 05:52:29;;;;;;;10.10;5.90;;;8.00;99.90;;;;;;5087945;28;20520;-78
2022/04/21 05:54:59;;;;;;;9.97;6.10;;;8.10;99.90;;;;;;5087140;28;20440;-78
2022/04/21 05:57:27;;;;;;;11.00;5.83;;;8.20;99.90;;;;;;5086781;28;20439;-80
2022/04/21 05:59:54;;;;;;;11.20;6.60;;;8.10;99.90;;;;;;5088015;28;20535;-80
2022/04/21 06:02:23;;;;;;;13.30;6.87;;;8.10;99.90;;;;;;5087377;28;20510;-79
2022/04/21 06:04:49;;;;;;;13.87;7.37;;;8.10;99.90;;;;;;5089539;28;20427;-79
2022/04/21 06:07:16;;;;;;;9.10;6.27;;;8.10;99.90;;;;;;5088473;28;20441;-77
2022/04/21 06:09:43;;;;;;;8.80;6.10;;;8.20;99.90;;;;;;5088295;28;20465;-78
2022/04/21 06:12:10;;;;;;;7.53;5.80;;;8.10;99.90;;;;;;5089354;28;20425;-78
2022/04/21 06:14:38;;;;;;;10.43;6.10;;;8.40;99.90;;;;;;5088124;28;20448;-79
2022/04/21 06:17:05;;;;;;;7.13;6.30;;;8.30;99.90;;;;;;5087761;28;20455;-80
2022/04/21 06:19:33;;;;;;;11.60;7.47;;;8.30;99.90;;;;;;5087735;28;20460;-80
2022/04/21 06:22:00;;;;;;;8.20;6.37;;;8.40;99.90;;;;;;5084975;28;20494;-78
2022/04/21 06:24:26;;;;;;;10.43;7.10;;;8.80;94.20;;;;;;5086585;28;20448;-78
2022/04/21 06:26:53;;;;;;;11.00;7.10;;;8.60;67.20;;;;;;5087327;28;20444;-77
2022/04/21 06:29:19;;;;;;;13.23;7.17;;;8.60;70.50;;;;;;5085355;28;20508;-78
2022/04/21 06:31:46;;;;;;;13.23;6.70;;;8.80;42.70;;;;;;5086573;28;20439;-78
2022/04/21 06:34:13;;;;;;;7.23;6.50;;;8.80;21.40;;;;;;5083199;28;20425;-78
2022/04/21 06:36:41;;;;;;;7.80;5.70;;;8.90;9.60;;;;;;5081202;28;20514;-78
2022/04/21 06:39:07;;;;;;;11.03;5.80;;;8.90;1.00;;;;;;5078884;28;20472;-79
2022/04/21 06:41:34;;;;;;;9.80;5.97;;;8.80;28.70;;;;;;5079257;28;20473;-79
2022/04/21 06:49:29;;;;;;;14.33;8.43;;;8.90;19.90;;;;;;5083006;28;20531;-77
2022/04/21 06:51:57;;;;;;;11.90;5.90;;;8.80;32.60;;;;;;5085681;28;20447;-78
2022/04/21 06:54:23;;;;;;;11.03;6.03;;;9.10;1.00;;;;;;5082961;28;20813;-79
2022/04/21 06:56:50;;;;;;;15.30;7.00;;;9.20;1.00;;;;;;5084185;28;20502;-79
2022/04/21 06:59:16;;;;;;;12.53;7.03;;;9.10;1.00;;;;;;5083371;28;20527;-79
2022/04/21 07:01:46;;;;;;;12.53;6.83;;;9.30;1.00;;;;;;5084517;28;20504;-78
2022/04/21 07:04:13;;;;;;;6.23;5.30;;;9.30;1.00;;;;;;5086495;28;20437;-77
2022/04/21 07:06:40;;;;;;;8.27;5.60;;;9.40;1.00;;;;;;5088891;28;20457;-78
2022/04/21 07:09:08;;;;;;;7.50;5.67;;;9.30;1.00;;;;;;5086246;28;20469;-79
2022/04/21 07:11:35;;;;;;;11.20;6.87;;;9.20;1.00;;;;;;5085390;28;20508;-78
2022/04/21 07:14:01;;;;;;;9.57;6.20;;;9.40;1.00;;;;;;5087041;28;20423;-77
2022/04/21 07:16:28;;;;;;;9.53;6.30;;;9.60;1.00;;;;;;5088060;28;20415;-79
2022/04/21 07:18:55;;;;;;;8.67;6.40;;;9.50;1.00;;;;;;5088740;28;20475;-78
2022/04/21 07:21:22;;;;;;;12.20;6.33;;;9.50;1.00;;;;;;5087636;28;20534;-77
2022/04/21 07:23:50;;;;;;;10.70;7.40;;;;;;;;;;5092226;28;20427;-77
2022/04/21 07:26:18;;;;;;;8.67;5.00;;;9.30;1.00;;;;;;5091230;28;20449;-77
2022/04/21 07:28:45;;;;;;;14.60;7.13;;;9.20;1.00;;;;;;5088704;28;20531;-78
2022/04/21 07:31:11;;;;;;;8.77;5.60;;;9.20;1.00;;;;;;5088841;28;20448;-78
2022/04/21 07:33:38;;;;;;;6.80;5.40;;;9.20;1.00;;;;;;5087729;28;20444;-78
2022/04/21 07:36:05;;;;;;;10.03;6.07;;;9.20;1.00;;;;;;5088047;28;20444;-78
2022/04/21 07:38:34;;;;;;;8.00;5.40;;;9.10;1.00;;;;;;5088420;28;20443;-78
2022/04/21 07:41:01;;;;;;;5.90;5.27;;;9.30;1.00;;;;;;5089324;28;20995;-78
2022/04/21 07:43:29;;;;;;;16.90;6.50;;;9.30;1.00;;;;;;5088824;28;20432;-78
2022/04/21 07:45:56;;;;;;;7.40;5.20;;;9.20;1.00;;;;;;5091369;28;20415;-78
2022/04/21 07:48:22;;;;;;;12.70;6.67;;;9.20;2.70;;;;;;5097748;28;20460;-78
2022/04/21 07:50:49;;;;;;;10.20;6.00;;;9.40;1.00;;;;;;5098885;28;20420;-79
2022/04/21 07:53:15;;;;;;;11.57;7.00;;;9.30;1.00;;;;;;5099529;28;20441;-78
2022/04/21 07:55:44;;;;;;;8.20;5.93;;;9.50;23.90;;;;;;5097471;28;20469;-78
2022/04/21 07:58:11;;;;;;;20.07;7.73;;;9.30;26.60;;;;;;5096225;28;20202;-77
2022/04/21 08:00:40;;;;;;;16.83;6.43;;;9.20;13.30;;;;;;5097957;28;20443;-78
2022/04/21 08:03:07;;;;;;;9.23;6.07;;;9.30;17.70;;;;;;5089372;28;20467;-80
2022/04/21 08:05:34;;;;;;;14.00;6.87;;;9.30;5.30;;;;;;5089811;28;20448;-77
2022/04/21 08:08:02;;;;;;;6.80;5.40;;;9.30;1.60;;;;;;5090336;28;20441;-78
2022/04/21 08:10:29;;;;;;;8.10;6.70;;;9.40;1.00;;;;;;5089339;28;20499;-77
2022/04/21 08:12:58;;;;;;;10.10;5.70;;;9.50;1.00;;;;;;5089437;28;20441;-77
2022/04/21 08:15:27;;;;;;;11.40;6.23;;;9.40;1.00;;;;;;5089024;28;20514;-78
2022/04/21 08:17:57;;;;;;;16.93;11.10;;;9.50;1.00;;;;;;5086350;28;20446;-78
2022/04/21 08:20:26;;;;;;;8.20;7.30;;;9.40;1.00;;;;;;5085480;28;20476;-78
2022/04/21 08:22:53;;;;;;;10.90;6.83;;;9.40;29.90;;;;;;5086321;28;20821;-77
2022/04/21 08:33:36;;;;;;;11.47;6.20;;;9.60;87.00;;;;;;5085672;28;20408;-78
2022/04/21 08:36:03;;;;;;;11.13;7.00;;;9.70;99.90;;;;;;5086454;28;20475;-80
2022/04/21 08:38:31;;;;;;;10.83;6.90;;;9.70;94.70;;;;;;5085916;28;20934;-79
2022/04/21 08:40:59;;;;;;;14.70;6.53;;;9.70;99.90;;;;;;5086411;28;20469;-78
2022/04/21 08:43:28;;;;;;;11.30;6.87;;;9.80;99.90;;;;;;5087104;28;20818;-79
2022/04/21 08:45:55;;;;;;;12.60;7.13;;;9.80;99.90;;;;;;5089518;28;20452;-77
2022/04/21 08:48:23;;;;;;;10.93;7.13;;;10.50;19.60;;;;;;5088475;28;20965;-80
2022/04/21 08:50:52;;;;;;;9.43;6.90;;;10.50;1.50;;;;;;5083658;28;20464;-79
2022/04/21 08:53:20;;;;;;;11.40;8.00;;;10.70;1.00;;;;;;5082905;28;20445;-80
2022/04/21 08:55:48;;;;;;;11.30;7.97;;;10.40;2.50;;;;;;5082877;28;20444;-80
2022/04/21 08:58:15;;;;;;;13.03;6.93;;;10.60;46.30;;;;;;5083611;28;20506;-79
2022/04/21 09:00:43;;;;;;;9.37;6.13;;;10.40;41.20;;;;;;5088201;28;20427;-78
2022/04/21 09:03:11;;;;;;;10.57;7.20;;;10.20;47.80;;;;;;5087297;28;20461;-79
2022/04/21 09:05:39;;;;;;;9.20;7.20;;;10.10;99.90;;;;;;5087273;28;20475;-78
2022/04/21 09:08:19;;;;;;;11.10;7.37;;;10.00;99.90;;;;;;5087083;28;20508;-79
2022/04/21 09:10:45;;;;;;;12.60;7.60;;;10.00;99.90;;;;;;5088306;28;20429;-78
2022/04/21 09:13:12;;;;;;;10.30;7.70;;;10.00;99.90;;;;;;5087031;28;20441;-78
2022/04/21 09:15:43;;;;;;;9.93;7.40;;;10.40;99.90;;;;;;5086853;28;20449;-79
2022/04/21 09:18:12;;;;;;;13.90;7.93;;;10.40;93.40;;;;;;5087567;28;20427;-79
2022/04/21 09:20:39;;;;;;;11.53;6.57;;;10.30;94.00;;;;;;5086970;28;20452;-78
2022/04/21 09:23:10;;;;;;;10.20;8.07;;;10.30;99.90;;;;;;5085484;28;20457;-78
2022/04/21 09:25:46;;;;;;;9.82;6.60;;;10.20;99.90;;;;;;5084655;28;20777;-77
2022/04/21 09:28:22;;;;;;;12.10;8.23;;;10.30;99.90;;;;;;5086007;28;20201;-78
2022/04/21 09:30:51;;;;;;;11.70;8.40;;;10.30;99.90;;;;;;5085607;28;20985;-78
2022/04/21 09:33:27;;;;;;;11.73;7.87;;;10.40;85.20;;;;;;5084525;28;20809;-78
2022/04/21 09:35:55;;;;;;;9.10;7.50;;;10.40;82.60;;;;;;5085247;28;20500;-78
2022/04/21 09:38:24;;;;;;;11.80;8.30;;;10.50;95.00;;;;;;5087162;28;20210;-78
2022/04/21 09:40:50;;;;;;;11.95;8.57;;;10.40;84.30;;;;;;5084939;28;20430;-78
2022/04/21 09:43:27;;;;;;;10.87;9.07;;;10.40;92.40;;;;;;5085801;28;20202;-79
2022/04/21 09:46:08;;;;;;;12.40;8.87;;;10.30;76.90;;;;;;5082893;28;20431;-78
2022/04/21 09:48:35;;;;;;;11.23;9.17;;;10.40;79.10;;;;;;5084209;28;20471;-78
2022/04/21 09:51:10;;;;;;;17.50;9.17;;;10.60;36.40;;;;;;5086749;28;20512;-79
2022/04/21 09:53:50;;;;;;;15.80;9.73;;;11.00;1.00;;;;;;5085393;28;20436;-79
2022/04/21 09:56:17;;;;;;;10.50;8.80;;;11.20;1.00;;;;;;5089218;28;20481;-80
2022/04/21 09:58:44;;;;;;;10.17;8.60;;;11.30;1.00;;;;;;5089329;28;20775;-79
2022/04/21 10:01:10;;;;;;;11.13;8.00;;;11.30;1.00;;;;;;5088362;28;20476;-79
2022/04/21 10:03:41;;;;;;;11.17;8.73;;;11.70;1.00;;;;;;5090179;28;20464;-78
2022/04/21 10:06:08;;;;;;;11.30;9.30;;;11.40;1.00;;;;;;5086207;28;20524;-77
2022/04/21 10:08:40;;;;;;;12.63;9.57;;;11.10;1.00;;;;;;5086195;28;20469;-78
2022/04/21 10:11:08;;;;;;;14.40;9.60;;;10.90;1.00;;;;;;5086378;28;20481;-78
2022/04/21 10:13:35;;;;;;;12.90;9.00;;;10.90;1.00;;;;;;5089172;28;20455;-78
2022/04/21 10:16:02;;;;;;;13.80;10.40;;;10.90;1.00;;;;;;5087850;28;20813;-78
2022/04/21 10:18:29;;;;;;;11.27;10.07;;;10.80;1.00;;;;;;5085955;28;22141;-79
2022/04/21 10:20:56;;;;;;;9.77;8.10;;;10.70;1.00;;;;;;5083888;28;20441;-80
2022/04/21 10:23:26;;;;;;;11.00;9.00;;;10.70;1.00;;;;;;5085998;28;20475;-78
2022/04/21 10:25:59;;;;;;;18.27;9.67;;;10.70;1.00;;;;;;5087350;28;20492;-78
2022/04/21 10:28:41;;;;;;;10.00;9.07;;;10.70;16.70;;;;;;5087606;28;20408;-77
2022/04/21 10:31:31;;;;;;;13.13;9.80;;;10.70;11.50;;;;;;5089033;28;20451;-78
2022/04/21 10:34:00;;;;;;;21.03;11.50;;;10.80;1.00;;;;;;5088592;28;20463;-79
2022/04/21 10:36:41;;;;;;;16.40;11.33;;;10.80;6.30;;;;;;5086524;28;20954;-78
2022/04/21 10:39:27;;;;;;;12.60;9.63;;;10.80;1.00;;;;;;5086389;28;20488;-78
2022/04/21 10:42:14;;;;;;;11.63;9.57;;;10.80;1.00;;;;;;5089527;28;20465;-78
2022/04/21 10:44:51;;;;;;;13.10;10.80;;;10.90;1.00;;;;;;5085399;28;20444;-79
2022/04/21 10:47:31;;;;;;;13.50;11.90;;;10.90;1.00;;;;;;5081918;28;20465;-79
2022/04/21 10:49:58;;;;;;;17.30;13.40;;;11.00;1.00;;;;;;5082695;28;20446;-77
2022/04/21 10:58:47;;;;;;;15.83;10.70;;;11.20;1.00;;;;;;5086518;28;20505;-78
2022/04/21 11:01:17;;;;;;;16.67;11.50;;;11.20;1.00;;;;;;5071040;28;20449;-78
2022/04/21 11:03:45;;;;;;;11.70;10.10;;;11.20;1.00;;;;;;5085937;28;21030;-82
2022/04/21 11:06:13;;;;;;;10.47;9.37;;;11.50;1.00;;;;;;5084611;28;20851;-77
2022/04/21 11:08:40;;;;;;;11.57;10.37;;;11.30;1.00;;;;;;5086481;28;20464;-78
2022/04/21 11:11:07;;;;;;;11.43;10.00;;;11.40;1.00;;;;;;5086895;28;20955;-81
2022/04/21 11:13:42;;;;;;;11.53;9.70;;;11.70;1.00;;;;;;5088551;28;20915;-78
2022/04/21 11:16:10;;;;;;;10.43;8.70;;;11.70;99.90;;;;;;5086436;28;20444;-80
2022/04/21 11:18:41;;;;;;;13.77;9.50;;;12.00;99.90;;;;;;5085012;28;20461;-82
2022/04/21 11:21:26;;;;;;;13.77;10.90;;;12.10;99.90;;;;;;5089350;28;20487;-83
2022/04/21 11:24:03;;;;;;;12.80;10.27;;;12.10;99.90;;;;;;5086368;28;20486;-81
2022/04/21 11:26:30;;;;;;;11.53;9.23;;;12.20;90.90;;;;;;5086520;28;20440;-81
2022/04/21 11:29:03;;;;;;;10.57;9.50;;;12.20;1.00;;;;;;5092238;28;20494;-81
2022/04/21 11:31:30;;;;;;;11.30;10.17;;;12.20;48.90;;;;;;5101296;28;20425;-81
2022/04/21 11:34:03;;;;;;;9.70;8.63;;;12.30;1.00;;;;;;5100910;28;20435;-80
2022/04/21 11:36:38;;;;;;;14.80;10.77;;;12.50;1.00;;;;;;5100564;28;20398;-80
2022/04/21 11:39:08;;;;;;;13.40;10.43;;;12.50;1.00;;;;;;5112139;22;20499;-80
2022/04/21 11:41:41;;;;;;;9.60;8.80;;;12.60;99.90;;;;;;5086153;28;20476;-82
2022/04/21 11:44:07;;;;;;;10.13;9.10;;;12.60;99.90;;;;;;5086191;28;20431;-81
2022/04/21 11:46:38;;;;;;;8.87;8.07;;;12.60;99.90;;;;;;5087074;28;20475;-81
2022/04/21 11:49:09;;;;;;;15.23;8.30;;;12.70;99.90;;;;;;5086599;28;20824;-81
2022/04/21 11:51:35;;;;;;;11.90;8.63;;;12.60;45.40;;;;;;5085226;28;20449;-81
2022/04/21 11:54:07;;;;;;;13.23;8.87;;;12.40;1.00;;;;;;5085365;28;20870;-82
2022/04/21 11:56:33;;;;;;;10.87;9.73;;;12.30;1.00;;;;;;5084020;28;20437;-82
2022/04/21 11:59:06;;;;;;;12.07;8.83;;;12.20;99.90;;;;;;5084327;28;20444;-82
2022/04/21 12:07:08;;;;;;;14.80;8.90;;;12.20;99.90;;;;;;5084903;28;20476;-82
2022/04/21 12:09:39;;;;;;;9.13;8.20;;;12.20;99.90;;;;;;5083050;28;20468;-83
2022/04/21 12:12:07;;;;;;;9.60;8.60;;;12.20;99.90;;;;;;5083215;28;20440;-82
2022/04/21 12:14:38;;;;;;;8.50;7.60;;;12.20;99.90;;;;;;5082627;28;20449;-82
2022/04/21 12:17:06;;;;;;;8.23;7.30;;;12.00;99.90;;;;;;5083631;28;20782;-82
2022/04/21 12:19:38;;;;;;;9.40;8.37;;;12.30;99.90;;;;;;5082419;28;20525;-82
2022/04/21 12:22:07;;;;;;;15.50;8.67;;;12.60;1.00;;;;;;5084361;28;20473;-82
2022/04/21 12:24:37;;;;;;;12.07;8.20;;;12.60;1.00;;;;;;5084207;28;20540;-82
2022/04/21 12:27:06;;;;;;;10.70;7.87;;;12.50;1.00;;;;;;5084466;28;20437;-82
2022/04/21 12:29:45;;;;;;;10.70;8.60;;;12.40;7.50;;;;;;5089786;28;20469;-82
2022/04/21 12:32:12;;;;;;;9.60;8.10;;;;;;;;;;5084770;28;20430;-81
2022/04/21 12:34:41;;;;;;;8.80;7.90;;;12.30;99.90;;;;;;5083028;28;20493;-81
2022/04/21 12:37:09;;;;;;;10.53;7.63;;;12.20;99.90;;;;;;5083513;28;20478;-82
2022/04/21 12:39:36;;;;;;;11.10;8.13;;;12.10;1.00;;;;;;5088448;28;20447;-82
2022/04/21 12:42:04;;;;;;;7.87;7.00;;;12.10;1.00;;;;;;5085333;28;20481;-81
2022/04/21 12:44:32;;;;;;;10.97;8.13;;;12.10;1.00;;;;;;5084274;28;20525;-84
2022/04/21 12:47:00;;;;;;;10.03;8.37;;;12.20;1.00;;;;;;5086290;28;20445;-84
2022/04/21 12:49:53;;;;;;;12.73;8.43;;;12.20;99.90;;;;;;5086953;28;20501;-84
2022/04/21 12:52:37;;;;;;;9.03;8.03;;;12.00;1.00;;;;;;5085557;28;20442;-83
2022/04/21 12:55:07;;;;;;;8.93;7.00;;;12.30;1.00;;;;;;5084900;28;20440;-84
2022/04/21 12:57:33;;;;;;;8.87;8.07;;;12.30;99.90;;;;;;5083358;28;20809;-81
2022/04/21 13:00:00;;;;;;;9.67;8.67;;;12.40;99.90;;;;;;5081316;28;20518;-82
2022/04/21 13:02:27;;;;;;;9.43;7.73;;;12.50;99.90;;;;;;5080608;28;20473;-81
2022/04/21 13:04:57;;;;;;;8.60;7.63;;;12.50;99.90;;;;;;5081147;28;20440;-82
2022/04/21 13:07:24;;;;;;;8.20;7.27;;;12.40;99.90;;;;;;5081626;28;20516;-83
2022/04/21 13:09:51;;;;;;;7.73;7.03;;;12.60;99.90;;;;;;5081244;28;20483;-82
2022/04/21 13:12:20;;;;;;;8.73;7.90;;;12.30;99.90;;;;;;5080983;28;20433;-82
2022/04/21 13:14:47;;;;;;;10.43;9.17;;;12.30;99.90;;;;;;5084120;28;20437;-81
2022/04/21 13:17:13;;;;;;;7.40;6.80;;;12.40;99.90;;;;;;5085162;28;20499;-80
2022/04/21 13:19:40;;;;;;;13.17;6.90;;;12.30;99.90;;;;;;5086905;28;20491;-81
2022/04/21 13:22:07;;;;;;;8.50;7.60;;;12.20;1.00;;;;;;5084665;28;20467;-80
2022/04/21 13:24:34;;;;;;;8.30;7.60;;;12.10;1.00;;;;;;5083253;28;20453;-80
2022/04/21 13:27:01;;;;;;;12.30;8.40;;;12.10;1.00;;;;;;5086625;28;20459;-80
2022/04/21 13:29:28;;;;;;;8.27;7.57;;;11.90;1.00;;;;;;5087532;28;20504;-81
2022/04/21 13:34:39;;;;;;;8.10;7.40;;;12.00;1.00;;;;;;5084627;28;20409;-80
2022/04/21 13:37:08;;;;;;;8.47;7.77;;;11.90;1.00;;;;;;5082137;28;20863;-81
2022/04/21 13:39:36;;;;;;;9.63;8.63;;;11.90;1.00;;;;;;5079192;28;20888;-81
2022/04/21 13:42:03;;;;;;;10.77;7.43;;;11.90;1.00;;;;;;5081583;28;20449;-80
2022/04/21 13:44:30;;;;;;;9.80;7.60;;;11.90;1.00;;;;;;5091728;28;20411;-80
2022/04/21 13:46:57;;;;;;;8.63;7.83;;;11.90;1.00;;;;;;5091847;28;20938;-82
2022/04/21 13:49:25;;;;;;;8.53;7.30;;;11.90;1.00;;;;;;5090975;28;20518;-80
2022/04/21 13:51:52;;;;;;;10.67;8.03;;;11.90;1.00;;;;;;5089341;28;20444;-81
2022/04/21 13:54:20;;;;;;;8.47;7.67;;;11.90;1.00;;;;;;5083267;28;20470;-81
2022/04/21 13:56:48;;;;;;;8.63;7.93;;;12.00;1.00;;;;;;5087670;28;20528;-82
2022/04/21 13:59:16;;;;;;;10.53;8.77;;;11.90;1.00;;;;;;5088991;28;20469;-81